createdAt,value
2022-11-11T00:01:07.394Z,7.47
2022-11-11T00:03:33.963Z,7.22
2022-11-11T00:06:05.145Z,8.75
2022-11-11T00:08:32.189Z,5.82
2022-11-11T00:11:06.580Z,8.52
2022-11-11T00:13:34.426Z,6.78
2022-11-11T00:16:12.368Z,6.30
2022-11-11T00:18:58.748Z,8.43
2022-11-11T00:21:44.023Z,8.85
2022-11-11T00:24:38.434Z,7.57
2022-11-11T00:27:07.966Z,9.18
2022-11-11T00:29:34.568Z,6.95
2022-11-11T00:32:19.745Z,7.55
2022-11-11T00:35:06.247Z,12.30
2022-11-11T00:37:33.807Z,9.65
2022-11-11T00:40:00.398Z,11.88
2022-11-11T00:42:27.703Z,9.65
2022-11-11T00:44:54.838Z,11.85
2022-11-11T00:47:39.893Z,8.88
2022-11-11T00:50:31.998Z,11.73
2022-11-11T00:52:58.556Z,12.55
2022-11-11T00:55:25.145Z,11.60
2022-11-11T00:57:51.692Z,11.40
2022-11-11T01:00:18.642Z,10.10
2022-11-11T01:02:45.288Z,15.23
2022-11-11T01:05:11.832Z,15.70
2022-11-11T01:07:38.376Z,11.77
2022-11-11T01:10:05.469Z,8.45
2022-11-11T01:12:32.048Z,7.38
2022-11-11T01:14:58.575Z,9.52
2022-11-11T01:17:25.157Z,7.53
2022-11-11T01:19:51.737Z,10.10
2022-11-11T01:22:18.244Z,12.95
2022-11-11T01:24:46.327Z,9.73
2022-11-11T01:27:12.975Z,7.97
2022-11-11T01:29:40.101Z,7.45
2022-11-11T01:32:06.704Z,10.07
2022-11-11T01:34:33.272Z,7.20
2022-11-11T01:36:59.869Z,9.18
2022-11-11T01:39:26.415Z,11.18
2022-11-11T01:41:53.860Z,9.70
2022-11-11T01:44:47.476Z,9.45
2022-11-11T01:47:15.446Z,13.30
2022-11-11T01:49:59.843Z,10.48
2022-11-11T01:52:34.854Z,9.77
2022-11-11T01:55:17.554Z,11.45
2022-11-11T01:57:50.685Z,8.57
2022-11-11T02:00:19.574Z,11.35
2022-11-11T02:02:48.946Z,7.70
2022-11-11T02:05:37.078Z,9.38
2022-11-11T02:08:32.409Z,12.20
2022-11-11T02:11:14.252Z,10.52
2022-11-11T02:14:02.099Z,9.57
2022-11-11T02:16:29.009Z,9.90
2022-11-11T02:18:56.147Z,9.52
2022-11-11T02:21:42.238Z,11.00
2022-11-11T02:24:12.618Z,8.75
2022-11-11T02:26:40.378Z,9.73
2022-11-11T02:29:14.656Z,11.02
2022-11-11T02:31:41.203Z,10.73
2022-11-11T02:34:07.834Z,12.13
2022-11-11T02:36:34.737Z,8.27
2022-11-11T02:39:01.558Z,9.43
2022-11-11T02:41:46.624Z,9.40
2022-11-11T02:44:13.123Z,8.77
2022-11-11T02:46:39.718Z,9.73
2022-11-11T02:49:06.350Z,9.45
2022-11-11T02:51:32.950Z,9.35
2022-11-11T02:53:59.569Z,11.85
2022-11-11T02:56:44.679Z,7.30
2022-11-11T02:59:11.531Z,8.80
2022-11-11T03:01:38.218Z,13.05
2022-11-11T03:04:05.414Z,8.20
2022-11-11T03:06:32.192Z,8.95
2022-11-11T03:08:59.038Z,6.40
2022-11-11T03:11:28.231Z,8.65
2022-11-11T03:16:40.718Z,11.00
2022-11-11T03:19:07.352Z,5.72
2022-11-11T03:24:20.407Z,9.85
2022-11-11T03:26:46.897Z,10.27
2022-11-11T03:29:13.445Z,9.93
2022-11-11T03:31:39.981Z,7.95
2022-11-11T03:34:18.558Z,10.05
2022-11-11T03:37:04.466Z,12.35
2022-11-11T03:39:31.013Z,13.70
2022-11-11T03:41:58.064Z,11.45
2022-11-11T03:44:25.278Z,11.02
2022-11-11T03:46:51.769Z,13.23
2022-11-11T03:49:18.291Z,12.15
2022-11-11T03:51:44.798Z,10.27
2022-11-11T03:54:11.482Z,11.75
2022-11-11T03:56:37.943Z,13.23
2022-11-11T03:59:04.440Z,10.57
2022-11-11T04:01:49.617Z,11.40
2022-11-11T04:04:34.479Z,13.90
2022-11-11T04:07:19.928Z,14.50
2022-11-11T04:10:04.597Z,17.92
2022-11-11T04:12:53.219Z,11.93
2022-11-11T04:15:38.391Z,13.32
2022-11-11T04:18:04.900Z,13.90
2022-11-11T04:20:49.836Z,13.57
2022-11-11T04:23:16.350Z,12.18
2022-11-11T04:25:53.536Z,15.02
2022-11-11T04:28:38.637Z,10.27
2022-11-11T04:31:05.125Z,15.13
2022-11-11T04:33:31.671Z,11.85
2022-11-11T04:35:58.147Z,9.02
2022-11-11T04:38:43.079Z,13.90
2022-11-11T04:41:11.190Z,11.05
2022-11-11T04:43:57.621Z,13.75
2022-11-11T04:46:24.097Z,11.35
2022-11-11T04:48:50.547Z,10.25
2022-11-11T04:51:17.053Z,12.38
2022-11-11T04:53:43.503Z,10.10
2022-11-11T04:56:28.503Z,12.27
2022-11-11T04:59:15.087Z,10.88
2022-11-11T05:02:00.703Z,9.65
2022-11-11T05:04:27.473Z,11.95
2022-11-11T05:07:12.598Z,8.63
2022-11-11T05:09:39.187Z,10.65
2022-11-11T05:12:05.931Z,9.32
2022-11-11T05:14:50.863Z,10.32
2022-11-11T05:17:35.682Z,10.95
2022-11-11T05:20:20.324Z,10.63
2022-11-11T05:22:46.811Z,10.27
2022-11-11T05:25:25.402Z,11.43
2022-11-11T05:27:53.329Z,13.30
2022-11-11T05:30:21.228Z,11.95
2022-11-11T05:32:47.796Z,11.13
2022-11-11T05:35:15.511Z,8.60
2022-11-11T05:37:42.683Z,12.57
2022-11-11T05:40:10.374Z,9.77
2022-11-11T05:42:48.174Z,17.42
2022-11-11T05:45:17.363Z,13.27
2022-11-11T05:47:43.796Z,11.85
2022-11-11T05:50:10.269Z,10.18
2022-11-11T05:52:36.748Z,13.05
2022-11-11T05:55:03.340Z,14.25
2022-11-11T05:57:29.808Z,10.43
2022-11-11T05:59:58.929Z,12.30
2022-11-11T06:02:25.423Z,11.07
2022-11-11T06:04:51.959Z,13.68
2022-11-11T06:07:18.502Z,15.25
2022-11-11T06:09:45.014Z,11.88
2022-11-11T06:12:11.505Z,12.55
2022-11-11T06:14:37.973Z,15.75
2022-11-11T06:17:04.540Z,11.02
2022-11-11T06:19:31.019Z,10.27
2022-11-11T06:21:57.525Z,9.18
2022-11-11T06:24:26.534Z,11.77
2022-11-11T06:29:20.547Z,10.63
2022-11-11T06:31:47.049Z,9.75
2022-11-11T06:34:13.805Z,12.80
2022-11-11T06:36:40.401Z,10.27
2022-11-11T06:39:06.949Z,18.40
2022-11-11T06:41:33.420Z,10.45
2022-11-11T06:43:59.936Z,9.35
2022-11-11T06:46:27.201Z,10.77
2022-11-11T06:48:53.741Z,15.63
2022-11-11T06:51:20.258Z,10.50
2022-11-11T06:53:46.783Z,8.95
2022-11-11T06:56:13.304Z,12.15
2022-11-11T06:58:40.302Z,9.95
2022-11-11T07:01:08.472Z,9.88
2022-11-11T07:03:36.111Z,10.35
2022-11-11T07:06:04.168Z,12.20
2022-11-11T07:08:31.265Z,11.02
2022-11-11T07:10:57.790Z,9.95
2022-11-11T07:13:24.743Z,11.88
2022-11-11T07:15:51.286Z,12.02
2022-11-11T07:18:17.820Z,14.50
2022-11-11T07:20:44.312Z,11.38
2022-11-11T07:23:10.921Z,11.65
2022-11-11T07:25:37.476Z,13.70
2022-11-11T07:28:04.072Z,12.38
2022-11-11T07:30:30.650Z,15.40
2022-11-11T07:32:57.120Z,12.82
2022-11-11T07:35:23.786Z,8.77
2022-11-11T07:37:50.895Z,12.20
2022-11-11T07:40:19.004Z,13.85
2022-11-11T07:42:45.722Z,10.00
2022-11-11T07:45:13.280Z,11.77
2022-11-11T07:47:42.031Z,11.38
2022-11-11T07:50:08.884Z,14.15
2022-11-11T07:52:37.385Z,12.27
2022-11-11T07:55:05.848Z,12.70
2022-11-11T07:57:32.535Z,13.52
2022-11-11T07:59:59.371Z,11.90
2022-11-11T08:02:25.984Z,10.07
2022-11-11T08:04:55.791Z,12.13
2022-11-11T08:07:24.133Z,11.80
2022-11-11T08:09:51.313Z,12.50
2022-11-11T08:12:36.778Z,12.20
2022-11-11T08:15:06.904Z,14.20
2022-11-11T08:17:39.635Z,13.82
2022-11-11T08:20:09.319Z,12.73
2022-11-11T08:22:39.710Z,13.07
2022-11-11T08:25:14.171Z,10.55
2022-11-11T08:27:42.530Z,14.05
2022-11-11T08:30:09.833Z,12.32
2022-11-11T08:32:36.392Z,14.60
2022-11-11T08:35:03.108Z,14.15
2022-11-11T08:37:29.741Z,10.90
2022-11-11T08:39:57.340Z,12.05
2022-11-11T08:42:24.199Z,12.27
2022-11-11T08:44:51.722Z,13.43
2022-11-11T08:47:20.559Z,13.43
2022-11-11T08:49:49.307Z,10.93
2022-11-11T08:52:16.348Z,18.17
2022-11-11T08:54:42.957Z,11.60
2022-11-11T08:57:09.575Z,9.90
2022-11-11T08:59:36.038Z,12.73
2022-11-11T09:02:02.566Z,11.15
2022-11-11T09:04:46.360Z,10.88
2022-11-11T09:07:14.248Z,12.15
2022-11-11T09:09:41.391Z,12.40
2022-11-11T09:12:07.911Z,11.15
2022-11-11T09:14:34.395Z,10.07
2022-11-11T09:17:00.964Z,9.98
2022-11-11T09:19:27.527Z,11.70
2022-11-11T09:21:54.192Z,8.82
2022-11-11T09:24:20.764Z,14.77
2022-11-11T09:26:49.313Z,10.35
2022-11-11T09:29:16.382Z,9.23
2022-11-11T09:31:45.088Z,12.15
2022-11-11T09:36:38.892Z,9.02
2022-11-11T09:39:05.470Z,13.00
2022-11-11T09:41:57.252Z,10.52
2022-11-11T09:44:44.144Z,7.30
2022-11-11T09:47:26.322Z,11.57
2022-11-11T09:50:01.893Z,11.25
2022-11-11T09:52:36.351Z,9.60
2022-11-11T09:55:15.397Z,8.65
2022-11-11T09:57:48.823Z,11.13
2022-11-11T10:00:23.061Z,12.70
2022-11-11T10:02:53.618Z,9.63
2022-11-11T10:05:23.132Z,11.18
2022-11-11T10:08:17.481Z,12.82
2022-11-11T10:10:51.245Z,10.52
2022-11-11T10:13:30.805Z,11.55
2022-11-11T10:16:02.181Z,10.95
2022-11-11T10:18:56.154Z,10.02
2022-11-11T10:24:50.832Z,12.85
2022-11-11T10:27:21.317Z,12.25
2022-11-11T10:29:49.285Z,11.38
2022-11-11T10:32:33.208Z,9.63
2022-11-11T10:35:18.208Z,10.43
2022-11-11T10:37:45.539Z,11.10
2022-11-11T10:40:21.955Z,10.27
2022-11-11T10:42:48.843Z,11.38
2022-11-11T10:45:30.192Z,13.52
2022-11-11T10:48:01.373Z,14.25
2022-11-11T10:50:41.943Z,10.77
2022-11-11T10:53:22.641Z,13.32
2022-11-11T10:55:58.979Z,14.93
2022-11-11T10:58:25.646Z,12.90
2022-11-11T11:00:54.121Z,11.20
2022-11-11T11:03:59.108Z,15.30
2022-11-11T11:06:31.881Z,9.85
2022-11-11T11:09:09.099Z,10.70
2022-11-11T11:11:41.238Z,12.13
2022-11-11T11:14:23.673Z,10.32
2022-11-11T11:16:55.741Z,10.55
2022-11-11T11:19:27.125Z,12.18
2022-11-11T11:21:57.876Z,16.08
2022-11-11T11:24:34.417Z,12.82
2022-11-11T11:27:03.133Z,10.80
2022-11-11T11:29:34.050Z,12.77
2022-11-11T11:32:17.219Z,11.25
2022-11-11T11:34:48.304Z,10.70
2022-11-11T11:37:15.201Z,14.27
2022-11-11T11:39:42.125Z,10.10
2022-11-11T11:42:10.622Z,12.48
2022-11-11T11:44:38.877Z,12.63
2022-11-11T11:47:18.112Z,12.77
2022-11-11T11:50:06.095Z,11.50
2022-11-11T11:52:59.727Z,13.27
2022-11-11T11:55:31.341Z,13.23
2022-11-11T11:58:42.618Z,12.00
2022-11-11T12:01:13.444Z,13.82
2022-11-11T12:03:58.884Z,11.07
2022-11-11T12:06:40.390Z,10.30
2022-11-11T12:09:06.813Z,10.15
2022-11-11T12:11:38.626Z,11.05
2022-11-11T12:14:20.326Z,11.70
2022-11-11T12:16:54.613Z,10.57
2022-11-11T12:19:41.506Z,10.82
2022-11-11T12:22:25.011Z,12.00
2022-11-11T12:25:29.148Z,12.02
2022-11-11T12:28:02.733Z,13.75
2022-11-11T12:30:33.312Z,12.73
2022-11-11T12:33:27.301Z,11.75
2022-11-11T12:36:15.264Z,10.93
2022-11-11T12:38:58.257Z,11.25
2022-11-11T12:41:33.936Z,12.27
2022-11-11T12:44:12.171Z,12.20
2022-11-11T12:46:56.553Z,10.57
2022-11-11T12:49:29.149Z,16.63
2022-11-11T12:52:18.356Z,12.90
2022-11-11T12:55:03.142Z,13.88
2022-11-11T12:57:51.125Z,11.50
2022-11-11T13:00:23.109Z,10.98
2022-11-11T13:03:01.759Z,14.35
2022-11-11T13:05:40.473Z,12.98
2022-11-11T13:08:12.774Z,12.82
2022-11-11T13:11:14.681Z,11.65
2022-11-11T13:14:44.079Z,10.40
2022-11-11T13:17:14.977Z,13.80
2022-11-11T13:20:16.549Z,10.38
2022-11-11T13:22:43.091Z,12.75
2022-11-11T13:25:17.226Z,11.05
2022-11-11T13:28:07.754Z,12.77
2022-11-11T13:30:52.774Z,15.10
2022-11-11T13:33:24.458Z,15.38
2022-11-11T13:36:01.613Z,14.07
2022-11-11T13:38:38.122Z,13.60
2022-11-11T13:41:07.411Z,13.38
2022-11-11T13:46:02.786Z,12.90
2022-11-11T13:48:34.250Z,14.02
2022-11-11T13:51:25.797Z,13.88
2022-11-11T13:53:53.118Z,10.43
2022-11-11T13:56:30.263Z,12.45
2022-11-11T13:58:58.421Z,10.57
2022-11-11T14:01:36.137Z,14.88
2022-11-11T14:04:08.950Z,12.82
2022-11-11T14:06:35.401Z,11.35
2022-11-11T14:09:02.537Z,14.45
2022-11-11T14:11:37.837Z,15.15
2022-11-11T14:14:32.009Z,10.95
2022-11-11T14:17:05.768Z,13.20
2022-11-11T14:19:33.399Z,11.40
2022-11-11T14:22:02.027Z,14.55
2022-11-11T14:24:40.226Z,13.88
2022-11-11T14:27:09.762Z,15.23
2022-11-11T14:29:58.937Z,15.57
2022-11-11T14:32:28.259Z,11.02
2022-11-11T14:35:19.934Z,13.68
2022-11-11T14:38:21.984Z,14.00
2022-11-11T14:40:48.596Z,16.77
2022-11-11T14:43:41.105Z,14.45
2022-11-11T14:46:17.763Z,13.57
2022-11-11T14:48:56.712Z,14.30
2022-11-11T14:51:55.082Z,11.45
2022-11-11T14:54:29.300Z,16.83
2022-11-11T14:57:03.513Z,13.23
2022-11-11T14:59:31.982Z,12.82
2022-11-11T15:01:59.617Z,14.48
2022-11-11T15:04:27.464Z,15.77
2022-11-11T15:06:57.453Z,16.38
2022-11-11T15:09:38.867Z,19.08
2022-11-11T15:12:20.241Z,26.75
2022-11-11T15:15:19.050Z,17.02
2022-11-11T15:18:05.342Z,17.30
2022-11-11T15:20:59.626Z,17.63
2022-11-11T15:24:12.818Z,15.07
2022-11-11T15:26:48.129Z,16.58
2022-11-11T15:29:43.702Z,15.10
2022-11-11T15:32:26.061Z,16.83
2022-11-11T15:35:09.368Z,17.00
2022-11-11T15:37:37.040Z,16.95
2022-11-11T15:40:04.715Z,21.55
2022-11-11T15:42:39.418Z,18.33
2022-11-11T15:45:20.941Z,19.10
2022-11-11T15:47:49.596Z,18.40
2022-11-11T15:50:30.971Z,17.45
2022-11-11T15:53:04.552Z,18.27
2022-11-11T15:55:37.214Z,19.52
2022-11-11T15:58:10.572Z,16.58
2022-11-11T16:00:38.214Z,16.77
2022-11-11T16:03:05.775Z,16.83
2022-11-11T16:05:32.939Z,16.70
2022-11-11T16:08:11.105Z,17.63
2022-11-11T16:10:41.374Z,17.25
2022-11-11T16:13:29.636Z,18.75
2022-11-11T16:16:09.256Z,18.58
2022-11-11T16:18:44.700Z,14.77
2022-11-11T16:23:39.859Z,16.65
2022-11-11T16:26:08.085Z,19.30
2022-11-11T16:28:46.863Z,19.23
2022-11-11T16:31:39.631Z,16.02
2022-11-11T16:34:28.933Z,18.35
2022-11-11T16:37:07.764Z,18.77
2022-11-11T16:39:36.737Z,19.08
2022-11-11T16:42:22.986Z,20.67
2022-11-11T16:45:01.276Z,20.30
2022-11-11T16:47:33.798Z,20.55
2022-11-11T16:50:32.879Z,25.42
2022-11-11T16:53:04.928Z,18.13
2022-11-11T16:55:43.686Z,21.35
2022-11-11T16:58:22.059Z,19.50
2022-11-11T17:00:49.404Z,18.60
2022-11-11T17:03:17.040Z,16.30
2022-11-11T17:05:52.724Z,15.18
2022-11-11T17:08:31.559Z,19.08
2022-11-11T17:10:59.131Z,18.63
2022-11-11T17:13:27.603Z,20.77
2022-11-11T17:15:55.699Z,20.17
2022-11-11T17:18:22.598Z,19.20
2022-11-11T17:20:50.575Z,18.85
2022-11-11T17:23:17.122Z,18.30
2022-11-11T17:25:44.889Z,19.75
2022-11-11T17:28:11.518Z,20.13
2022-11-11T17:30:38.007Z,23.50
2022-11-11T17:33:05.200Z,19.40
2022-11-11T17:35:31.785Z,19.25
2022-11-11T17:37:58.260Z,19.98
2022-11-11T17:40:24.768Z,19.45
2022-11-11T17:42:51.311Z,20.50
2022-11-11T17:45:17.796Z,20.15
2022-11-11T17:47:44.359Z,22.50
2022-11-11T17:50:10.965Z,20.67
2022-11-11T17:52:37.797Z,23.98
2022-11-11T17:55:04.597Z,19.48
2022-11-11T17:57:32.070Z,22.88
2022-11-11T17:59:58.582Z,23.63
2022-11-11T18:02:25.092Z,25.20
2022-11-11T18:04:51.658Z,20.02
2022-11-11T18:07:18.242Z,21.20
2022-11-11T18:09:44.765Z,22.27
2022-11-11T18:12:11.282Z,22.88
2022-11-11T18:14:37.767Z,21.88
2022-11-11T18:17:04.245Z,22.77
2022-11-11T18:19:30.726Z,19.50
2022-11-11T18:21:57.240Z,20.98
2022-11-11T18:24:23.687Z,24.08
2022-11-11T18:26:50.213Z,21.80
2022-11-11T18:29:16.708Z,23.40
2022-11-11T18:31:43.240Z,24.98
2022-11-11T18:34:09.731Z,21.00
2022-11-11T18:36:36.217Z,22.35
2022-11-11T18:39:02.924Z,27.00
2022-11-11T18:41:29.540Z,22.92
2022-11-11T18:43:57.716Z,25.58
2022-11-11T18:46:27.078Z,23.50
2022-11-11T18:51:21.162Z,23.48
2022-11-11T18:53:47.720Z,23.48
2022-11-11T18:56:17.457Z,22.38
2022-11-11T18:58:58.801Z,22.98
2022-11-11T19:01:28.653Z,22.67
2022-11-11T19:04:04.382Z,24.10
2022-11-11T19:06:33.528Z,21.38
2022-11-11T19:09:02.850Z,23.77
2022-11-11T19:11:30.839Z,25.02
2022-11-11T19:13:57.360Z,26.13
2022-11-11T19:16:24.933Z,23.30
2022-11-11T19:18:52.901Z,23.75
2022-11-11T19:21:24.803Z,24.33
2022-11-11T19:23:53.635Z,23.08
2022-11-11T19:26:21.607Z,29.35
2022-11-11T19:28:48.221Z,23.08
2022-11-11T19:31:23.797Z,21.60
2022-11-11T19:36:28.074Z,26.02
2022-11-11T19:38:57.236Z,21.45
2022-11-11T19:41:26.315Z,24.70
2022-11-11T19:43:59.010Z,21.15
2022-11-11T19:46:27.957Z,21.25
2022-11-11T19:48:56.220Z,21.38
2022-11-11T19:51:25.457Z,20.65
2022-11-11T19:53:56.321Z,24.70
2022-11-11T19:56:24.808Z,21.23
2022-11-11T19:58:51.391Z,21.50
2022-11-11T20:01:21.285Z,20.58
2022-11-11T20:03:49.196Z,24.85
2022-11-11T20:06:25.986Z,21.90
2022-11-11T20:08:53.975Z,21.10
2022-11-11T20:11:21.365Z,24.52
2022-11-11T20:13:49.106Z,23.35
2022-11-11T20:16:16.649Z,23.50
2022-11-11T20:18:43.217Z,21.58
2022-11-11T20:21:12.816Z,24.83
2022-11-11T20:23:41.044Z,22.60
2022-11-11T20:26:13.587Z,20.27
2022-11-11T20:28:40.961Z,17.30
2022-11-11T20:31:16.237Z,21.38
2022-11-11T20:33:43.618Z,22.85
2022-11-11T20:36:12.701Z,27.42
2022-11-11T20:38:41.104Z,22.85
2022-11-11T20:41:15.676Z,22.50
2022-11-11T20:43:42.218Z,21.58
2022-11-11T20:46:11.729Z,19.80
2022-11-11T20:48:41.087Z,25.25
2022-11-11T20:53:35.640Z,21.17
2022-11-11T20:56:02.151Z,22.70
2022-11-11T20:58:29.344Z,19.30
2022-11-11T21:01:03.459Z,20.77
2022-11-11T21:03:33.293Z,20.02
2022-11-11T21:06:08.746Z,21.48
2022-11-11T21:08:36.574Z,20.70
2022-11-11T21:11:04.388Z,20.45
2022-11-11T21:13:31.630Z,21.48
2022-11-11T21:16:14.165Z,19.45
2022-11-11T21:18:44.005Z,18.23
2022-11-11T21:21:16.020Z,19.35
2022-11-11T21:23:43.283Z,17.77
2022-11-11T21:26:11.909Z,19.38
2022-11-11T21:28:39.784Z,17.23
2022-11-11T21:31:21.458Z,18.02
2022-11-11T21:33:55.482Z,18.67
2022-11-11T21:36:23.631Z,17.70
2022-11-11T21:38:50.774Z,19.73
2022-11-11T21:41:20.227Z,18.45
2022-11-11T21:46:19.121Z,19.42
2022-11-11T21:48:46.180Z,18.98
2022-11-11T21:51:19.959Z,22.05
2022-11-11T21:53:51.014Z,17.67
2022-11-11T21:56:17.680Z,18.60
2022-11-11T21:58:45.038Z,17.65
2022-11-11T22:01:19.041Z,20.55
2022-11-11T22:03:51.037Z,20.35
2022-11-11T22:06:18.394Z,20.23
2022-11-11T22:08:47.655Z,19.15
2022-11-11T22:11:22.242Z,19.73
2022-11-11T22:13:49.060Z,21.67
2022-11-11T22:16:18.392Z,18.50
2022-11-11T22:18:45.306Z,21.05
2022-11-11T22:21:20.347Z,19.95
2022-11-11T22:23:51.997Z,24.70
2022-11-11T22:26:19.329Z,23.23
2022-11-11T22:28:51.164Z,21.13
2022-11-11T22:31:22.109Z,16.85
2022-11-11T22:33:55.008Z,21.33
2022-11-11T22:36:21.530Z,22.80
2022-11-11T22:38:48.208Z,22.15
2022-11-11T22:41:20.428Z,20.60
2022-11-11T22:44:03.990Z,19.15
2022-11-11T22:46:31.651Z,21.60
2022-11-11T22:49:04.245Z,19.48
2022-11-11T22:51:32.455Z,19.85
2022-11-11T22:54:04.778Z,21.00
2022-11-11T22:56:33.434Z,20.23
2022-11-11T22:59:00.307Z,24.27
2022-11-11T23:01:30.813Z,22.58
2022-11-11T23:04:01.485Z,22.67
2022-11-11T23:06:31.528Z,24.35
2022-11-11T23:08:59.528Z,20.98
2022-11-11T23:11:29.040Z,21.33
2022-11-11T23:14:03.891Z,20.45
2022-11-11T23:16:30.956Z,19.85
2022-11-11T23:18:58.771Z,21.13
2022-11-11T23:21:27.438Z,23.13
2022-11-11T23:23:54.260Z,25.75
2022-11-11T23:26:24.323Z,18.90
2022-11-11T23:28:51.582Z,25.15
2022-11-11T23:31:23.965Z,24.05
2022-11-11T23:33:53.834Z,23.23
2022-11-11T23:36:23.477Z,26.60
2022-11-11T23:38:50.521Z,23.30
2022-11-11T23:41:17.591Z,23.13
2022-11-11T23:43:44.115Z,25.40
2022-11-11T23:46:11.155Z,21.98
2022-11-11T23:48:37.737Z,18.05
2022-11-11T23:51:04.283Z,21.92
2022-11-11T23:53:30.877Z,26.38
2022-11-11T23:55:57.616Z,22.80
2022-11-11T23:58:25.344Z,26.25
